sensor_id;sensor_type;location;lat;lon;timestamp;P1;durP1;ratioP1;P2;durP2;ratioP2
37517;SDS011;23366;52.498;13.446;2023-08-21T00:01:08;6.30;;;3.90;;
37517;SDS011;23366;52.498;13.446;2023-08-21T00:03:34;5.95;;;3.97;;
37517;SDS011;23366;52.498;13.446;2023-08-21T00:05:59;6.28;;;4.13;;
37517;SDS011;23366;52.498;13.446;2023-08-21T00:08:25;8.88;;;4.68;;
37517;SDS011;23366;52.498;13.446;2023-08-21T00:10:50;6.00;;;4.18;;
37517;SDS011;23366;52.498;13.446;2023-08-21T00:13:16;7.60;;;4.70;;
37517;SDS011;23366;52.498;13.446;2023-08-21T00:15:41;6.78;;;4.50;;
37517;SDS011;23366;52.498;13.446;2023-08-21T00:18:06;7.15;;;3.97;;
37517;SDS011;23366;52.498;13.446;2023-08-21T00:20:32;6.20;;;4.38;;
37517;SDS011;23366;52.498;13.446;2023-08-21T00:22:57;8.75;;;4.63;;
37517;SDS011;23366;52.498;13.446;2023-08-21T00:25:23;7.45;;;4.55;;
37517;SDS011;23366;52.498;13.446;2023-08-21T00:27:49;5.82;;;4.60;;
37517;SDS011;23366;52.498;13.446;2023-08-21T00:30:15;8.15;;;4.43;;
37517;SDS011;23366;52.498;13.446;2023-08-21T00:32:41;7.03;;;4.85;;
37517;SDS011;23366;52.498;13.446;2023-08-21T00:35:06;15.68;;;4.95;;
37517;SDS011;23366;52.498;13.446;2023-08-21T00:37:32;6.63;;;4.78;;
37517;SDS011;23366;52.498;13.446;2023-08-21T00:39:58;10.70;;;4.85;;
37517;SDS011;23366;52.498;13.446;2023-08-21T00:42:23;7.55;;;4.65;;
37517;SDS011;23366;52.498;13.446;2023-08-21T00:44:49;7.45;;;5.00;;
37517;SDS011;23366;52.498;13.446;2023-08-21T00:47:14;9.35;;;5.38;;
37517;SDS011;23366;52.498;13.446;2023-08-21T00:49:40;6.38;;;3.72;;
37517;SDS011;23366;52.498;13.446;2023-08-21T00:52:09;5.97;;;3.90;;
37517;SDS011;23366;52.498;13.446;2023-08-21T00:57:05;7.95;;;4.28;;
37517;SDS011;23366;52.498;13.446;2023-08-21T00:59:30;7.85;;;5.45;;
37517;SDS011;23366;52.498;13.446;2023-08-21T01:01:56;7.25;;;5.03;;
37517;SDS011;23366;52.498;13.446;2023-08-21T01:04:22;8.15;;;5.13;;
37517;SDS011;23366;52.498;13.446;2023-08-21T01:06:48;7.00;;;4.72;;
37517;SDS011;23366;52.498;13.446;2023-08-21T01:12:23;4.45;;;3.63;;
37517;SDS011;23366;52.498;13.446;2023-08-21T01:14:56;10.55;;;6.60;;
37517;SDS011;23366;52.498;13.446;2023-08-21T01:17:28;6.88;;;4.65;;
37517;SDS011;23366;52.498;13.446;2023-08-21T01:19:55;8.77;;;5.45;;
37517;SDS011;23366;52.498;13.446;2023-08-21T01:22:25;6.13;;;4.80;;
37517;SDS011;23366;52.498;13.446;2023-08-21T01:24:51;7.47;;;4.45;;
37517;SDS011;23366;52.498;13.446;2023-08-21T01:27:17;7.40;;;4.82;;
37517;SDS011;23366;52.498;13.446;2023-08-21T01:29:42;6.00;;;5.03;;
37517;SDS011;23366;52.498;13.446;2023-08-21T01:32:27;8.30;;;6.03;;
37517;SDS011;23366;52.498;13.446;2023-08-21T01:34:59;6.65;;;4.78;;
37517;SDS011;23366;52.498;13.446;2023-08-21T01:37:26;6.07;;;4.43;;
37517;SDS011;23366;52.498;13.446;2023-08-21T01:39:53;11.38;;;4.88;;
37517;SDS011;23366;52.498;13.446;2023-08-21T01:42:24;4.82;;;3.90;;
37517;SDS011;23366;52.498;13.446;2023-08-21T01:44:50;7.75;;;4.85;;
37517;SDS011;23366;52.498;13.446;2023-08-21T01:47:16;7.38;;;4.50;;
37517;SDS011;23366;52.498;13.446;2023-08-21T01:49:41;5.95;;;4.78;;
37517;SDS011;23366;52.498;13.446;2023-08-21T01:52:07;7.10;;;4.95;;
37517;SDS011;23366;52.498;13.446;2023-08-21T01:54:32;8.18;;;4.63;;
37517;SDS011;23366;52.498;13.446;2023-08-21T01:56:58;6.13;;;4.00;;
37517;SDS011;23366;52.498;13.446;2023-08-21T01:59:24;7.18;;;4.93;;
37517;SDS011;23366;52.498;13.446;2023-08-21T02:01:49;7.38;;;4.60;;
37517;SDS011;23366;52.498;13.446;2023-08-21T02:04:15;6.28;;;4.40;;
37517;SDS011;23366;52.498;13.446;2023-08-21T02:06:40;6.95;;;4.57;;
37517;SDS011;23366;52.498;13.446;2023-08-21T02:09:06;6.43;;;4.78;;
37517;SDS011;23366;52.498;13.446;2023-08-21T02:11:31;6.25;;;4.50;;
37517;SDS011;23366;52.498;13.446;2023-08-21T02:13:57;5.95;;;3.88;;
37517;SDS011;23366;52.498;13.446;2023-08-21T02:16:22;6.18;;;4.43;;
37517;SDS011;23366;52.498;13.446;2023-08-21T02:18:48;8.32;;;4.57;;
37517;SDS011;23366;52.498;13.446;2023-08-21T02:21:14;6.32;;;4.18;;
37517;SDS011;23366;52.498;13.446;2023-08-21T02:23:39;7.05;;;4.60;;
37517;SDS011;23366;52.498;13.446;2023-08-21T02:26:04;6.82;;;4.50;;
37517;SDS011;23366;52.498;13.446;2023-08-21T02:28:30;5.85;;;4.00;;
37517;SDS011;23366;52.498;13.446;2023-08-21T02:30:55;6.53;;;4.63;;
37517;SDS011;23366;52.498;13.446;2023-08-21T02:33:21;7.55;;;5.13;;
37517;SDS011;23366;52.498;13.446;2023-08-21T02:35:46;7.00;;;5.15;;
37517;SDS011;23366;52.498;13.446;2023-08-21T02:38:12;6.93;;;4.30;;
37517;SDS011;23366;52.498;13.446;2023-08-21T02:40:37;6.25;;;4.22;;
37517;SDS011;23366;52.498;13.446;2023-08-21T02:43:03;6.07;;;4.18;;
37517;SDS011;23366;52.498;13.446;2023-08-21T02:45:28;6.15;;;3.65;;
37517;SDS011;23366;52.498;13.446;2023-08-21T02:47:54;6.35;;;4.75;;
37517;SDS011;23366;52.498;13.446;2023-08-21T02:50:20;6.43;;;4.18;;
37517;SDS011;23366;52.498;13.446;2023-08-21T02:52:45;6.82;;;4.57;;
37517;SDS011;23366;52.498;13.446;2023-08-21T02:55:11;6.22;;;4.00;;
37517;SDS011;23366;52.498;13.446;2023-08-21T02:57:36;7.45;;;4.28;;
37517;SDS011;23366;52.498;13.446;2023-08-21T03:00:02;8.13;;;5.07;;
37517;SDS011;23366;52.498;13.446;2023-08-21T03:02:28;5.85;;;4.80;;
37517;SDS011;23366;52.498;13.446;2023-08-21T03:04:53;5.18;;;4.00;;
37517;SDS011;23366;52.498;13.446;2023-08-21T03:07:19;8.05;;;4.50;;
37517;SDS011;23366;52.498;13.446;2023-08-21T03:09:45;7.10;;;4.00;;
37517;SDS011;23366;52.498;13.446;2023-08-21T03:12:14;6.80;;;4.53;;
37517;SDS011;23366;52.498;13.446;2023-08-21T03:14:40;6.70;;;5.22;;
37517;SDS011;23366;52.498;13.446;2023-08-21T03:17:06;6.65;;;4.93;;
37517;SDS011;23366;52.498;13.446;2023-08-21T03:19:31;8.40;;;4.45;;
37517;SDS011;23366;52.498;13.446;2023-08-21T03:21:57;6.05;;;4.78;;
37517;SDS011;23366;52.498;13.446;2023-08-21T03:24:22;5.07;;;3.60;;
37517;SDS011;23366;52.498;13.446;2023-08-21T03:26:48;8.55;;;4.63;;
37517;SDS011;23366;52.498;13.446;2023-08-21T03:29:13;7.57;;;4.68;;
37517;SDS011;23366;52.498;13.446;2023-08-21T03:31:39;6.38;;;4.10;;
37517;SDS011;23366;52.498;13.446;2023-08-21T03:34:04;4.68;;;3.65;;
37517;SDS011;23366;52.498;13.446;2023-08-21T03:36:30;6.35;;;5.25;;
37517;SDS011;23366;52.498;13.446;2023-08-21T03:38:59;6.22;;;4.47;;
37517;SDS011;23366;52.498;13.446;2023-08-21T03:41:25;5.53;;;3.80;;
37517;SDS011;23366;52.498;13.446;2023-08-21T03:43:51;5.82;;;3.95;;
37517;SDS011;23366;52.498;13.446;2023-08-21T03:46:17;5.30;;;3.90;;
37517;SDS011;23366;52.498;13.446;2023-08-21T03:48:42;6.47;;;3.95;;
37517;SDS011;23366;52.498;13.446;2023-08-21T03:51:08;6.03;;;3.28;;
37517;SDS011;23366;52.498;13.446;2023-08-21T03:53:33;4.80;;;3.47;;
37517;SDS011;23366;52.498;13.446;2023-08-21T03:55:59;7.00;;;3.55;;
37517;SDS011;23366;52.498;13.446;2023-08-21T03:58:24;5.43;;;3.97;;
37517;SDS011;23366;52.498;13.446;2023-08-21T04:00:51;5.88;;;3.92;;
37517;SDS011;23366;52.498;13.446;2023-08-21T04:03:17;8.05;;;3.95;;
37517;SDS011;23366;52.498;13.446;2023-08-21T04:05:42;4.80;;;3.47;;
37517;SDS011;23366;52.498;13.446;2023-08-21T04:08:08;5.55;;;3.28;;
37517;SDS011;23366;52.498;13.446;2023-08-21T04:10:33;6.30;;;3.95;;
37517;SDS011;23366;52.498;13.446;2023-08-21T04:12:59;6.05;;;4.03;;
37517;SDS011;23366;52.498;13.446;2023-08-21T04:15:25;5.50;;;3.88;;
37517;SDS011;23366;52.498;13.446;2023-08-21T04:17:50;8.25;;;4.55;;
37517;SDS011;23366;52.498;13.446;2023-08-21T04:20:16;3.75;;;3.40;;
37517;SDS011;23366;52.498;13.446;2023-08-21T04:22:42;5.07;;;3.22;;
37517;SDS011;23366;52.498;13.446;2023-08-21T04:25:08;11.18;;;4.85;;
37517;SDS011;23366;52.498;13.446;2023-08-21T04:27:34;7.10;;;4.07;;
37517;SDS011;23366;52.498;13.446;2023-08-21T04:29:59;5.32;;;3.63;;
37517;SDS011;23366;52.498;13.446;2023-08-21T04:32:25;7.03;;;4.05;;
37517;SDS011;23366;52.498;13.446;2023-08-21T04:34:50;6.93;;;4.00;;
37517;SDS011;23366;52.498;13.446;2023-08-21T04:37:16;5.80;;;3.58;;
37517;SDS011;23366;52.498;13.446;2023-08-21T04:39:41;6.45;;;4.28;;
37517;SDS011;23366;52.498;13.446;2023-08-21T04:42:07;4.75;;;3.08;;
37517;SDS011;23366;52.498;13.446;2023-08-21T04:44:32;5.00;;;3.45;;
37517;SDS011;23366;52.498;13.446;2023-08-21T04:47:18;5.63;;;3.92;;
37517;SDS011;23366;52.498;13.446;2023-08-21T04:49:48;5.90;;;3.83;;
37517;SDS011;23366;52.498;13.446;2023-08-21T04:52:14;4.82;;;3.33;;
37517;SDS011;23366;52.498;13.446;2023-08-21T04:54:40;9.57;;;3.88;;
37517;SDS011;23366;52.498;13.446;2023-08-21T04:57:05;4.53;;;3.25;;
37517;SDS011;23366;52.498;13.446;2023-08-21T04:59:31;4.78;;;3.22;;
37517;SDS011;23366;52.498;13.446;2023-08-21T05:01:56;4.22;;;3.20;;
37517;SDS011;23366;52.498;13.446;2023-08-21T05:04:22;5.97;;;4.07;;
37517;SDS011;23366;52.498;13.446;2023-08-21T05:06:48;5.00;;;3.83;;
37517;SDS011;23366;52.498;13.446;2023-08-21T05:09:13;7.60;;;4.45;;
37517;SDS011;23366;52.498;13.446;2023-08-21T05:11:38;5.63;;;4.10;;
37517;SDS011;23366;52.498;13.446;2023-08-21T05:14:04;5.72;;;3.45;;
37517;SDS011;23366;52.498;13.446;2023-08-21T05:16:29;4.57;;;3.25;;
37517;SDS011;23366;52.498;13.446;2023-08-21T05:18:55;5.30;;;3.58;;
37517;SDS011;23366;52.498;13.446;2023-08-21T05:21:20;4.68;;;3.42;;
37517;SDS011;23366;52.498;13.446;2023-08-21T05:23:46;5.50;;;3.75;;
37517;SDS011;23366;52.498;13.446;2023-08-21T05:26:11;7.53;;;4.00;;
37517;SDS011;23366;52.498;13.446;2023-08-21T05:28:37;5.68;;;3.45;;
37517;SDS011;23366;52.498;13.446;2023-08-21T05:31:02;3.45;;;2.47;;
37517;SDS011;23366;52.498;13.446;2023-08-21T05:33:28;5.13;;;3.05;;
37517;SDS011;23366;52.498;13.446;2023-08-21T05:35:53;3.22;;;2.75;;
37517;SDS011;23366;52.498;13.446;2023-08-21T05:38:21;6.25;;;3.67;;
37517;SDS011;23366;52.498;13.446;2023-08-21T05:40:47;4.57;;;2.70;;
37517;SDS011;23366;52.498;13.446;2023-08-21T05:43:13;5.10;;;3.33;;
37517;SDS011;23366;52.498;13.446;2023-08-21T05:45:39;6.97;;;4.22;;
37517;SDS011;23366;52.498;13.446;2023-08-21T05:48:05;3.35;;;2.47;;
37517;SDS011;23366;52.498;13.446;2023-08-21T05:50:30;4.35;;;3.15;;
37517;SDS011;23366;52.498;13.446;2023-08-21T05:52:56;3.95;;;3.08;;
37517;SDS011;23366;52.498;13.446;2023-08-21T05:55:23;3.55;;;3.15;;
37517;SDS011;23366;52.498;13.446;2023-08-21T05:57:48;4.93;;;2.72;;
37517;SDS011;23366;52.498;13.446;2023-08-21T06:00:14;4.28;;;2.88;;
37517;SDS011;23366;52.498;13.446;2023-08-21T06:02:40;14.35;;;3.47;;
37517;SDS011;23366;52.498;13.446;2023-08-21T06:05:07;4.88;;;3.33;;
37517;SDS011;23366;52.498;13.446;2023-08-21T06:07:34;4.70;;;3.67;;
37517;SDS011;23366;52.498;13.446;2023-08-21T06:09:59;4.63;;;3.38;;
37517;SDS011;23366;52.498;13.446;2023-08-21T06:12:25;5.38;;;4.20;;
37517;SDS011;23366;52.498;13.446;2023-08-21T06:14:50;12.13;;;2.92;;
37517;SDS011;23366;52.498;13.446;2023-08-21T06:17:16;8.35;;;3.25;;
37517;SDS011;23366;52.498;13.446;2023-08-21T06:19:41;5.68;;;3.38;;
37517;SDS011;23366;52.498;13.446;2023-08-21T06:22:07;5.38;;;3.25;;
37517;SDS011;23366;52.498;13.446;2023-08-21T06:24:33;3.03;;;2.42;;
37517;SDS011;23366;52.498;13.446;2023-08-21T06:26:58;5.97;;;3.72;;
37517;SDS011;23366;52.498;13.446;2023-08-21T06:29:24;2.92;;;2.28;;
37517;SDS011;23366;52.498;13.446;2023-08-21T06:31:49;5.78;;;2.85;;
37517;SDS011;23366;52.498;13.446;2023-08-21T06:34:15;4.47;;;3.17;;
37517;SDS011;23366;52.498;13.446;2023-08-21T06:36:40;4.32;;;2.60;;
37517;SDS011;23366;52.498;13.446;2023-08-21T06:39:06;6.05;;;2.90;;
37517;SDS011;23366;52.498;13.446;2023-08-21T06:41:31;4.47;;;2.67;;
37517;SDS011;23366;52.498;13.446;2023-08-21T06:43:57;4.72;;;3.03;;
37517;SDS011;23366;52.498;13.446;2023-08-21T06:46:23;6.40;;;3.50;;
37517;SDS011;23366;52.498;13.446;2023-08-21T06:48:48;2.63;;;2.30;;
37517;SDS011;23366;52.498;13.446;2023-08-21T06:51:15;4.68;;;2.50;;
37517;SDS011;23366;52.498;13.446;2023-08-21T06:53:41;3.22;;;2.28;;
37517;SDS011;23366;52.498;13.446;2023-08-21T06:56:06;5.05;;;2.45;;
37517;SDS011;23366;52.498;13.446;2023-08-21T06:58:32;3.20;;;2.15;;
37517;SDS011;23366;52.498;13.446;2023-08-21T07:00:59;4.03;;;2.40;;
37517;SDS011;23366;52.498;13.446;2023-08-21T07:03:25;2.80;;;2.17;;
37517;SDS011;23366;52.498;13.446;2023-08-21T07:05:54;3.80;;;3.33;;
37517;SDS011;23366;52.498;13.446;2023-08-21T07:08:23;3.20;;;1.98;;
37517;SDS011;23366;52.498;13.446;2023-08-21T07:10:49;3.40;;;2.75;;
37517;SDS011;23366;52.498;13.446;2023-08-21T07:13:15;3.40;;;2.20;;
37517;SDS011;23366;52.498;13.446;2023-08-21T07:15:40;2.95;;;2.28;;
37517;SDS011;23366;52.498;13.446;2023-08-21T07:18:06;4.63;;;2.35;;
37517;SDS011;23366;52.498;13.446;2023-08-21T07:20:32;2.65;;;2.00;;
37517;SDS011;23366;52.498;13.446;2023-08-21T07:22:58;3.13;;;2.05;;
37517;SDS011;23366;52.498;13.446;2023-08-21T07:25:24;7.25;;;2.20;;
37517;SDS011;23366;52.498;13.446;2023-08-21T07:27:50;2.92;;;2.28;;
37517;SDS011;23366;52.498;13.446;2023-08-21T07:30:18;4.43;;;2.17;;
37517;SDS011;23366;52.498;13.446;2023-08-21T07:32:44;2.30;;;2.03;;
37517;SDS011;23366;52.498;13.446;2023-08-21T07:35:10;2.03;;;1.50;;
37517;SDS011;23366;52.498;13.446;2023-08-21T07:37:36;2.13;;;1.42;;
37517;SDS011;23366;52.498;13.446;2023-08-21T07:40:01;5.97;;;1.40;;
37517;SDS011;23366;52.498;13.446;2023-08-21T07:42:27;1.85;;;1.58;;
37517;SDS011;23366;52.498;13.446;2023-08-21T07:44:52;1.77;;;1.20;;
37517;SDS011;23366;52.498;13.446;2023-08-21T07:47:18;1.92;;;1.17;;
37517;SDS011;23366;52.498;13.446;2023-08-21T07:49:43;1.70;;;1.30;;
37517;SDS011;23366;52.498;13.446;2023-08-21T07:52:09;2.88;;;1.40;;
37517;SDS011;23366;52.498;13.446;2023-08-21T07:54:34;2.50;;;1.02;;
37517;SDS011;23366;52.498;13.446;2023-08-21T07:57:00;2.85;;;1.58;;
37517;SDS011;23366;52.498;13.446;2023-08-21T07:59:26;1.77;;;1.27;;
37517;SDS011;23366;52.498;13.446;2023-08-21T08:01:52;2.55;;;1.40;;
37517;SDS011;23366;52.498;13.446;2023-08-21T08:04:17;0.85;;;0.80;;
37517;SDS011;23366;52.498;13.446;2023-08-21T08:06:43;1.02;;;0.77;;
37517;SDS011;23366;52.498;13.446;2023-08-21T08:09:08;3.70;;;0.90;;
37517;SDS011;23366;52.498;13.446;2023-08-21T08:11:34;2.55;;;1.25;;
37517;SDS011;23366;52.498;13.446;2023-08-21T08:13:59;2.03;;;0.95;;
37517;SDS011;23366;52.498;13.446;2023-08-21T08:16:25;1.88;;;1.30;;
37517;SDS011;23366;52.498;13.446;2023-08-21T08:18:50;1.38;;;0.98;;
37517;SDS011;23366;52.498;13.446;2023-08-21T08:21:16;1.27;;;1.08;;
37517;SDS011;23366;52.498;13.446;2023-08-21T08:23:42;1.67;;;0.85;;
37517;SDS011;23366;52.498;13.446;2023-08-21T08:26:08;1.77;;;1.17;;
37517;SDS011;23366;52.498;13.446;2023-08-21T08:28:33;1.77;;;1.02;;
37517;SDS011;23366;52.498;13.446;2023-08-21T08:30:59;2.65;;;0.88;;
37517;SDS011;23366;52.498;13.446;2023-08-21T08:33:25;1.10;;;1.00;;
37517;SDS011;23366;52.498;13.446;2023-08-21T08:35:51;1.50;;;1.30;;
37517;SDS011;23366;52.498;13.446;2023-08-21T08:38:17;1.70;;;1.23;;
37517;SDS011;23366;52.498;13.446;2023-08-21T08:40:45;2.92;;;1.05;;
37517;SDS011;23366;52.498;13.446;2023-08-21T08:43:11;10.07;;;1.30;;
37517;SDS011;23366;52.498;13.446;2023-08-21T08:45:38;1.80;;;1.40;;
37517;SDS011;23366;52.498;13.446;2023-08-21T08:48:05;2.17;;;1.10;;
37517;SDS011;23366;52.498;13.446;2023-08-21T08:50:32;1.77;;;1.08;;
37517;SDS011;23366;52.498;13.446;2023-08-21T08:52:58;2.42;;;1.10;;
37517;SDS011;23366;52.498;13.446;2023-08-21T08:55:25;2.28;;;0.90;;
37517;SDS011;23366;52.498;13.446;2023-08-21T08:57:51;2.20;;;1.08;;
37517;SDS011;23366;52.498;13.446;2023-08-21T09:00:18;1.52;;;0.80;;
37517;SDS011;23366;52.498;13.446;2023-08-21T09:02:45;1.95;;;0.80;;
37517;SDS011;23366;52.498;13.446;2023-08-21T09:05:10;0.95;;;0.50;;
37517;SDS011;23366;52.498;13.446;2023-08-21T09:07:37;0.85;;;0.68;;
37517;SDS011;23366;52.498;13.446;2023-08-21T09:10:03;1.45;;;0.63;;
37517;SDS011;23366;52.498;13.446;2023-08-21T09:12:31;2.20;;;1.00;;
37517;SDS011;23366;52.498;13.446;2023-08-21T09:14:57;1.33;;;0.70;;
37517;SDS011;23366;52.498;13.446;2023-08-21T09:17:25;3.22;;;0.90;;
37517;SDS011;23366;52.498;13.446;2023-08-21T09:19:51;4.30;;;0.70;;
37517;SDS011;23366;52.498;13.446;2023-08-21T09:22:17;1.20;;;0.47;;
37517;SDS011;23366;52.498;13.446;2023-08-21T09:24:59;1.20;;;0.82;;
37517;SDS011;23366;52.498;13.446;2023-08-21T09:27:35;0.13;;;0.13;;
37517;SDS011;23366;52.498;13.446;2023-08-21T09:35:37;0.88;;;0.52;;
37517;SDS011;23366;52.498;13.446;2023-08-21T09:38:04;1.00;;;0.68;;
37517;SDS011;23366;52.498;13.446;2023-08-21T09:40:30;1.48;;;0.75;;
37517;SDS011;23366;52.498;13.446;2023-08-21T09:42:55;2.50;;;1.15;;
37517;SDS011;23366;52.498;13.446;2023-08-21T09:45:22;0.75;;;0.40;;
37517;SDS011;23366;52.498;13.446;2023-08-21T09:47:48;3.13;;;1.27;;
37517;SDS011;23366;52.498;13.446;2023-08-21T09:50:14;1.27;;;0.30;;
37517;SDS011;23366;52.498;13.446;2023-08-21T09:52:40;1.45;;;0.57;;
37517;SDS011;23366;52.498;13.446;2023-08-21T09:55:07;0.80;;;0.38;;
37517;SDS011;23366;52.498;13.446;2023-08-21T09:57:34;0.93;;;0.45;;
37517;SDS011;23366;52.498;13.446;2023-08-21T10:00:00;2.75;;;0.98;;
37517;SDS011;23366;52.498;13.446;2023-08-21T10:02:30;0.70;;;0.55;;
37517;SDS011;23366;52.498;13.446;2023-08-21T10:04:56;1.38;;;0.60;;
37517;SDS011;23366;52.498;13.446;2023-08-21T10:07:23;0.98;;;0.50;;
37517;SDS011;23366;52.498;13.446;2023-08-21T10:09:52;1.52;;;0.77;;
37517;SDS011;23366;52.498;13.446;2023-08-21T10:12:18;1.88;;;0.77;;
37517;SDS011;23366;52.498;13.446;2023-08-21T10:14:45;1.05;;;0.73;;
37517;SDS011;23366;52.498;13.446;2023-08-21T10:17:11;1.23;;;1.00;;
37517;SDS011;23366;52.498;13.446;2023-08-21T10:19:37;1.42;;;0.75;;
37517;SDS011;23366;52.498;13.446;2023-08-21T10:22:02;1.48;;;0.70;;
37517;SDS011;23366;52.498;13.446;2023-08-21T10:24:32;1.60;;;0.90;;
37517;SDS011;23366;52.498;13.446;2023-08-21T10:27:01;1.95;;;1.17;;
37517;SDS011;23366;52.498;13.446;2023-08-21T10:29:27;1.70;;;0.80;;
37517;SDS011;23366;52.498;13.446;2023-08-21T10:32:03;2.80;;;1.33;;
37517;SDS011;23366;52.498;13.446;2023-08-21T10:34:33;2.72;;;1.08;;
37517;SDS011;23366;52.498;13.446;2023-08-21T10:37:03;3.47;;;1.17;;
37517;SDS011;23366;52.498;13.446;2023-08-21T10:39:31;1.65;;;1.20;;
37517;SDS011;23366;52.498;13.446;2023-08-21T10:42:08;2.55;;;1.23;;
37517;SDS011;23366;52.498;13.446;2023-08-21T10:47:23;2.20;;;0.80;;
37517;SDS011;23366;52.498;13.446;2023-08-21T10:49:56;0.60;;;0.52;;
37517;SDS011;23366;52.498;13.446;2023-08-21T10:52:24;3.33;;;0.60;;
37517;SDS011;23366;52.498;13.446;2023-08-21T10:54:56;1.52;;;0.55;;
37517;SDS011;23366;52.498;13.446;2023-08-21T10:57:23;0.82;;;0.47;;
37517;SDS011;23366;52.498;13.446;2023-08-21T10:59:50;0.65;;;0.40;;
37517;SDS011;23366;52.498;13.446;2023-08-21T11:02:16;3.17;;;1.10;;
37517;SDS011;23366;52.498;13.446;2023-08-21T11:04:42;1.95;;;0.98;;
37517;SDS011;23366;52.498;13.446;2023-08-21T11:07:09;3.92;;;1.02;;
37517;SDS011;23366;52.498;13.446;2023-08-21T11:09:35;1.38;;;1.08;;
37517;SDS011;23366;52.498;13.446;2023-08-21T11:12:11;2.85;;;1.15;;
37517;SDS011;23366;52.498;13.446;2023-08-21T11:14:38;1.98;;;0.60;;
37517;SDS011;23366;52.498;13.446;2023-08-21T11:17:04;1.00;;;0.50;;
37517;SDS011;23366;52.498;13.446;2023-08-21T11:19:30;0.85;;;0.52;;
37517;SDS011;23366;52.498;13.446;2023-08-21T11:21:56;2.42;;;1.20;;
37517;SDS011;23366;52.498;13.446;2023-08-21T11:24:29;3.55;;;1.85;;
37517;SDS011;23366;52.498;13.446;2023-08-21T11:26:55;1.15;;;0.80;;
37517;SDS011;23366;52.498;13.446;2023-08-21T11:29:21;2.00;;;0.52;;
37517;SDS011;23366;52.498;13.446;2023-08-21T11:31:46;1.10;;;0.73;;
37517;SDS011;23366;52.498;13.446;2023-08-21T11:34:17;1.50;;;1.00;;
37517;SDS011;23366;52.498;13.446;2023-08-21T11:36:43;1.05;;;0.73;;
37517;SDS011;23366;52.498;13.446;2023-08-21T11:39:09;2.83;;;1.00;;
37517;SDS011;23366;52.498;13.446;2023-08-21T11:41:52;5.70;;;1.30;;
37517;SDS011;23366;52.498;13.446;2023-08-21T11:44:21;2.92;;;1.35;;
37517;SDS011;23366;52.498;13.446;2023-08-21T11:46:47;1.67;;;1.00;;
37517;SDS011;23366;52.498;13.446;2023-08-21T11:49:15;2.83;;;1.38;;
37517;SDS011;23366;52.498;13.446;2023-08-21T11:51:40;2.03;;;1.05;;
37517;SDS011;23366;52.498;13.446;2023-08-21T11:54:06;2.10;;;0.88;;
37517;SDS011;23366;52.498;13.446;2023-08-21T11:56:31;1.98;;;0.93;;
37517;SDS011;23366;52.498;13.446;2023-08-21T11:58:57;1.70;;;0.77;;
37517;SDS011;23366;52.498;13.446;2023-08-21T12:01:26;1.42;;;0.82;;
37517;SDS011;23366;52.498;13.446;2023-08-21T12:03:51;3.35;;;1.77;;
37517;SDS011;23366;52.498;13.446;2023-08-21T12:06:20;4.75;;;1.02;;
37517;SDS011;23366;52.498;13.446;2023-08-21T12:08:47;3.42;;;1.40;;
37517;SDS011;23366;52.498;13.446;2023-08-21T12:11:12;3.15;;;1.63;;
37517;SDS011;23366;52.498;13.446;2023-08-21T12:13:38;1.98;;;0.85;;
37517;SDS011;23366;52.498;13.446;2023-08-21T12:16:03;3.10;;;1.73;;
37517;SDS011;23366;52.498;13.446;2023-08-21T12:18:29;3.35;;;1.15;;
37517;SDS011;23366;52.498;13.446;2023-08-21T12:20:55;5.82;;;1.58;;
37517;SDS011;23366;52.498;13.446;2023-08-21T12:23:20;2.38;;;1.40;;
37517;SDS011;23366;52.498;13.446;2023-08-21T12:25:46;2.03;;;1.15;;
37517;SDS011;23366;52.498;13.446;2023-08-21T12:28:11;3.60;;;2.70;;
37517;SDS011;23366;52.498;13.446;2023-08-21T12:30:37;0.50;;;0.50;;
37517;SDS011;23366;52.498;13.446;2023-08-21T12:33:02;1.80;;;0.98;;
37517;SDS011;23366;52.498;13.446;2023-08-21T12:35:28;1.35;;;0.77;;
37517;SDS011;23366;52.498;13.446;2023-08-21T12:37:56;2.42;;;1.17;;
37517;SDS011;23366;52.498;13.446;2023-08-21T12:40:23;0.85;;;0.60;;
37517;SDS011;23366;52.498;13.446;2023-08-21T12:42:48;2.03;;;0.80;;
37517;SDS011;23366;52.498;13.446;2023-08-21T12:45:14;1.85;;;1.38;;
37517;SDS011;23366;52.498;13.446;2023-08-21T12:47:40;1.58;;;0.90;;
37517;SDS011;23366;52.498;13.446;2023-08-21T12:50:06;2.38;;;1.00;;
37517;SDS011;23366;52.498;13.446;2023-08-21T12:52:32;5.22;;;0.93;;
37517;SDS011;23366;52.498;13.446;2023-08-21T12:54:57;1.50;;;0.65;;
37517;SDS011;23366;52.498;13.446;2023-08-21T12:57:24;1.42;;;0.50;;
37517;SDS011;23366;52.498;13.446;2023-08-21T12:59:51;1.23;;;0.73;;
37517;SDS011;23366;52.498;13.446;2023-08-21T13:02:16;1.27;;;0.52;;
37517;SDS011;23366;52.498;13.446;2023-08-21T13:04:42;2.50;;;1.17;;
37517;SDS011;23366;52.498;13.446;2023-08-21T13:07:07;4.70;;;0.60;;
37517;SDS011;23366;52.498;13.446;2023-08-21T13:09:33;0.52;;;0.52;;
37517;SDS011;23366;52.498;13.446;2023-08-21T13:11:59;2.35;;;0.40;;
37517;SDS011;23366;52.498;13.446;2023-08-21T13:14:25;1.85;;;0.63;;
37517;SDS011;23366;52.498;13.446;2023-08-21T13:16:50;1.38;;;0.82;;
37517;SDS011;23366;52.498;13.446;2023-08-21T13:19:16;0.93;;;0.25;;
37517;SDS011;23366;52.498;13.446;2023-08-21T13:21:41;1.48;;;0.73;;
37517;SDS011;23366;52.498;13.446;2023-08-21T13:24:08;1.10;;;0.75;;
37517;SDS011;23366;52.498;13.446;2023-08-21T13:26:33;1.73;;;0.40;;
37517;SDS011;23366;52.498;13.446;2023-08-21T13:28:58;0.90;;;0.38;;
37517;SDS011;23366;52.498;13.446;2023-08-21T13:31:24;1.95;;;0.73;;
37517;SDS011;23366;52.498;13.446;2023-08-21T13:33:50;0.68;;;0.40;;
37517;SDS011;23366;52.498;13.446;2023-08-21T13:36:16;2.65;;;0.65;;
37517;SDS011;23366;52.498;13.446;2023-08-21T13:38:43;1.38;;;0.30;;
37517;SDS011;23366;52.498;13.446;2023-08-21T13:41:09;1.40;;;0.50;;
37517;SDS011;23366;52.498;13.446;2023-08-21T13:43:35;0.32;;;0.30;;
37517;SDS011;23366;52.498;13.446;2023-08-21T13:46:01;1.77;;;0.50;;
37517;SDS011;23366;52.498;13.446;2023-08-21T13:48:28;2.03;;;0.57;;
37517;SDS011;23366;52.498;13.446;2023-08-21T13:50:55;2.00;;;0.50;;
37517;SDS011;23366;52.498;13.446;2023-08-21T13:53:20;1.23;;;0.47;;
37517;SDS011;23366;52.498;13.446;2023-08-21T13:55:46;2.00;;;0.73;;
37517;SDS011;23366;52.498;13.446;2023-08-21T13:58:11;1.60;;;0.88;;
37517;SDS011;23366;52.498;13.446;2023-08-21T14:00:37;2.17;;;1.02;;
37517;SDS011;23366;52.498;13.446;2023-08-21T14:03:02;1.60;;;0.70;;
37517;SDS011;23366;52.498;13.446;2023-08-21T14:05:28;1.33;;;0.68;;
37517;SDS011;23366;52.498;13.446;2023-08-21T14:07:56;1.38;;;0.75;;
37517;SDS011;23366;52.498;13.446;2023-08-21T14:10:22;3.03;;;0.70;;
37517;SDS011;23366;52.498;13.446;2023-08-21T14:12:47;1.90;;;1.27;;
37517;SDS011;23366;52.498;13.446;2023-08-21T14:15:13;3.08;;;0.98;;
37517;SDS011;23366;52.498;13.446;2023-08-21T14:17:39;0.73;;;0.60;;
37517;SDS011;23366;52.498;13.446;2023-08-21T14:20:04;0.65;;;0.63;;
37517;SDS011;23366;52.498;13.446;2023-08-21T14:22:32;2.25;;;0.90;;
37517;SDS011;23366;52.498;13.446;2023-08-21T14:24:57;1.65;;;0.63;;
37517;SDS011;23366;52.498;13.446;2023-08-21T14:27:23;0.47;;;0.30;;
37517;SDS011;23366;52.498;13.446;2023-08-21T14:29:48;3.47;;;0.60;;
37517;SDS011;23366;52.498;13.446;2023-08-21T14:32:14;0.70;;;0.30;;
37517;SDS011;23366;52.498;13.446;2023-08-21T14:34:40;0.30;;;0.20;;
37517;SDS011;23366;52.498;13.446;2023-08-21T14:37:05;0.82;;;0.82;;
37517;SDS011;23366;52.498;13.446;2023-08-21T14:39:31;4.05;;;0.73;;
37517;SDS011;23366;52.498;13.446;2023-08-21T14:41:57;1.58;;;0.50;;